Terminal Aerodrome Forecast
Issued by NWS Hastings, NE

Home | Current Version | Previous Version | Text Only | Print | Product List | Glossary On
Versions: 1 2 3 4 5 6 7 8 9 10 11 12 13 14 15 16 17 18 19 20 21 22 23 24 25 26 27 28 29 30 31 32 33 34 35 36 37 38 39 40 41
000
FTUS43 KGID 052339
TAFGRI
TAF
KGRI 052339Z 0600/0624 16018G26KT P6SM SCT250
     FM060600 19018G26KT P6SM VCTS SCT050CB BKN100
     FM061200 31016G23KT P6SM VCTS OVC100CB
     FM061500 35021G28KT P6SM VCTS OVC035CB
     FM061900 36020G27KT P6SM BKN100=

USA.gov is the U.S. government's official web portal to all federal, state and local government web resources and services.